Terminal Aerodrome Forecast
Issued by NWS Sterling, VA

Home | Current Version | Previous Version | Text Only | Print | Product List | Glossary On
Versions: 1 2 3 4 5 6 7 8 9 10 11 12 13 14 15 16 17 18 19 20 21 22 23 24 25 26 27 28 29 30 31 32 33
102
FTUS41 KLWX 191736
TAFIAD
TAF
KIAD 191736Z 1918/2024 19009KT 2SM -DZ BKN006 OVC025
     FM192200 18008KT 2SM -DZ BKN015 OVC025
     FM200000 18007KT P6SM SCT025 BKN035
     FM200600 19008KT 3SM BR SCT025 BKN090 WS020/22035KT
     FM201500 20009KT P6SM FEW025 SCT100=

USA.gov is the U.S. government's official web portal to all federal, state and local government web resources and services.